createdAt,value
2022-12-03T00:00:42.160Z,17.10
2022-12-03T00:03:09.750Z,17.10
2022-12-03T00:05:36.579Z,17.10
2022-12-03T00:08:06.662Z,17.10
2022-12-03T00:10:33.872Z,17.20
2022-12-03T00:13:00.851Z,17.10
2022-12-03T00:15:27.648Z,17.20
2022-12-03T00:17:55.621Z,17.10
2022-12-03T00:20:25.570Z,17.00
2022-12-03T00:22:52.443Z,17.10
2022-12-03T00:25:19.413Z,17.20
2022-12-03T00:27:48.358Z,17.10
2022-12-03T00:30:15.027Z,17.10
2022-12-03T00:32:42.116Z,17.10
2022-12-03T00:35:08.974Z,17.10
2022-12-03T00:37:36.002Z,17.10
2022-12-03T00:40:05.818Z,17.10
2022-12-03T00:42:32.406Z,17.10
2022-12-03T00:45:05.427Z,16.80
2022-12-03T00:47:38.618Z,17.00
2022-12-03T00:50:06.204Z,16.90
2022-12-03T00:52:32.796Z,17.10
2022-12-03T00:54:59.358Z,17.10
2022-12-03T00:57:26.752Z,17.10
2022-12-03T00:59:53.581Z,17.50
2022-12-03T01:02:20.793Z,17.60
2022-12-03T01:04:48.179Z,17.50
2022-12-03T01:07:15.169Z,17.50
2022-12-03T01:09:42.156Z,17.50
2022-12-03T01:12:09.109Z,17.30
2022-12-03T01:14:39.136Z,17.40
2022-12-03T01:17:06.801Z,17.30
2022-12-03T01:19:35.113Z,17.20
2022-12-03T01:22:02.310Z,17.20
2022-12-03T01:24:28.890Z,17.20
2022-12-03T01:26:56.601Z,17.30
2022-12-03T01:29:23.317Z,17.40
2022-12-03T01:32:08.674Z,17.40
2022-12-03T01:34:35.434Z,17.40
2022-12-03T01:37:02.164Z,17.40
2022-12-03T01:39:29.006Z,17.30
2022-12-03T01:42:02.463Z,17.30
2022-12-03T01:44:31.259Z,17.30
2022-12-03T01:46:59.834Z,17.30
2022-12-03T01:49:28.478Z,17.20
2022-12-03T01:51:56.023Z,17.20
2022-12-03T01:54:25.795Z,17.20
2022-12-03T01:56:53.092Z,17.20
2022-12-03T01:59:21.456Z,17.10
2022-12-03T02:01:48.111Z,17.10
2022-12-03T02:04:15.759Z,17.10
2022-12-03T02:06:45.466Z,17.10
2022-12-03T02:09:12.892Z,17.10
2022-12-03T02:11:44.368Z,17.10
2022-12-03T02:14:12.183Z,17.00
2022-12-03T02:16:39.735Z,17.00
2022-12-03T02:19:10.152Z,17.20
2022-12-03T02:21:36.708Z,17.10
2022-12-03T02:24:03.268Z,17.00
2022-12-03T02:26:29.887Z,17.10
2022-12-03T02:28:56.704Z,17.00
2022-12-03T02:31:23.649Z,17.00
2022-12-03T02:33:50.428Z,17.00
2022-12-03T02:36:17.095Z,16.90
2022-12-03T02:38:44.223Z,17.00
2022-12-03T02:41:32.503Z,17.00
2022-12-03T02:43:59.203Z,17.00
2022-12-03T02:46:25.838Z,17.00
2022-12-03T02:48:52.403Z,17.00
2022-12-03T02:51:19.017Z,16.90
2022-12-03T02:53:47.265Z,17.00
2022-12-03T02:56:16.203Z,17.00
2022-12-03T02:58:44.675Z,16.80
2022-12-03T03:01:11.408Z,16.90
2022-12-03T03:03:38.600Z,16.90
2022-12-03T03:06:06.225Z,16.90
2022-12-03T03:08:33.015Z,16.90
2022-12-03T03:11:00.931Z,16.90
2022-12-03T03:13:29.561Z,16.90
2022-12-03T03:15:56.380Z,16.90
2022-12-03T03:18:23.278Z,17.00
2022-12-03T03:20:49.821Z,16.80
2022-12-03T03:23:17.905Z,17.00
2022-12-03T03:25:46.553Z,17.00
2022-12-03T03:28:14.069Z,16.90
2022-12-03T03:30:41.214Z,16.80
2022-12-03T03:33:08.140Z,16.90
2022-12-03T03:35:35.300Z,16.90
2022-12-03T03:38:02.083Z,16.90
2022-12-03T03:40:29.173Z,16.80
2022-12-03T03:42:55.999Z,17.10
2022-12-03T03:45:27.339Z,16.90
2022-12-03T03:47:56.306Z,16.80
2022-12-03T03:50:23.160Z,16.80
2022-12-03T03:52:49.890Z,16.90
2022-12-03T03:55:17.134Z,16.80
2022-12-03T03:57:43.700Z,16.80
2022-12-03T04:00:10.902Z,17.00
2022-12-03T04:02:37.590Z,16.80
2022-12-03T04:05:04.672Z,16.80
2022-12-03T04:07:31.275Z,16.80
2022-12-03T04:09:57.868Z,16.90
2022-12-03T04:12:43.318Z,16.80
2022-12-03T04:15:10.010Z,16.80
2022-12-03T04:17:36.747Z,16.80
2022-12-03T04:20:03.614Z,16.80
2022-12-03T04:22:42.458Z,16.80
2022-12-03T04:25:28.395Z,16.80
2022-12-03T04:28:13.498Z,16.80
2022-12-03T04:30:40.249Z,16.90
2022-12-03T04:33:25.742Z,16.90
2022-12-03T04:35:52.399Z,17.00
2022-12-03T04:38:19.034Z,16.80
2022-12-03T04:41:00.729Z,16.70
2022-12-03T04:43:27.729Z,16.80
2022-12-03T04:45:54.477Z,16.80
2022-12-03T04:48:21.140Z,16.80
2022-12-03T04:50:48.032Z,16.80
2022-12-03T04:53:14.708Z,16.90
2022-12-03T04:55:41.433Z,16.80
2022-12-03T04:58:08.107Z,16.80
2022-12-03T05:00:34.637Z,16.80
2022-12-03T05:03:01.327Z,16.70
2022-12-03T05:05:27.899Z,16.80
2022-12-03T05:07:54.577Z,16.80
2022-12-03T05:10:21.199Z,16.70
2022-12-03T05:12:47.760Z,16.80
2022-12-03T05:15:14.365Z,16.80
2022-12-03T05:17:40.911Z,16.70
2022-12-03T05:20:27.510Z,17.00
2022-12-03T05:22:54.057Z,16.80
2022-12-03T05:25:20.627Z,16.80
2022-12-03T05:27:47.192Z,16.70
2022-12-03T05:30:14.379Z,16.70
2022-12-03T05:32:41.076Z,16.70
2022-12-03T05:35:07.863Z,16.70
2022-12-03T05:37:34.404Z,16.70
2022-12-03T05:40:00.989Z,16.70
2022-12-03T05:42:45.934Z,16.90
2022-12-03T05:45:12.501Z,16.80
2022-12-03T05:47:39.199Z,16.80
2022-12-03T05:50:06.140Z,16.70
2022-12-03T05:52:32.715Z,16.70
2022-12-03T05:54:59.309Z,16.70
2022-12-03T05:57:25.846Z,16.70
2022-12-03T05:59:52.416Z,16.70
2022-12-03T06:02:19.158Z,16.70
2022-12-03T06:04:45.935Z,16.80
2022-12-03T06:07:14.304Z,16.80
2022-12-03T06:09:41.105Z,16.80
2022-12-03T06:12:08.675Z,16.70
2022-12-03T06:14:35.700Z,16.70
2022-12-03T06:17:02.376Z,16.70
2022-12-03T06:19:28.940Z,16.60
2022-12-03T06:21:55.500Z,16.60
2022-12-03T06:24:22.052Z,16.70
2022-12-03T06:26:48.628Z,16.70
2022-12-03T06:29:15.195Z,16.70
2022-12-03T06:31:41.890Z,16.60
2022-12-03T06:34:08.533Z,16.60
2022-12-03T06:36:35.075Z,16.70
2022-12-03T06:39:01.645Z,16.70
2022-12-03T06:41:28.214Z,16.70
2022-12-03T06:43:54.820Z,16.60
2022-12-03T06:46:21.471Z,16.60
2022-12-03T06:48:48.089Z,16.60
2022-12-03T06:51:14.653Z,16.70
2022-12-03T06:53:41.243Z,16.60
2022-12-03T06:56:07.891Z,16.70
2022-12-03T06:58:34.459Z,16.60
2022-12-03T07:01:01.023Z,16.60
2022-12-03T07:03:27.670Z,16.70
2022-12-03T07:05:54.314Z,16.60
2022-12-03T07:08:20.869Z,16.60
2022-12-03T07:10:47.442Z,16.60
2022-12-03T07:13:14.011Z,16.60
2022-12-03T07:15:40.691Z,16.60
2022-12-03T07:18:07.338Z,16.60
2022-12-03T07:20:33.912Z,16.60
2022-12-03T07:23:00.502Z,16.60
2022-12-03T07:25:27.230Z,16.50
2022-12-03T07:27:53.774Z,16.60
2022-12-03T07:30:20.848Z,16.60
2022-12-03T07:32:47.447Z,16.60
2022-12-03T07:35:14.051Z,16.60
2022-12-03T07:37:40.625Z,16.60
2022-12-03T07:40:07.563Z,16.50
2022-12-03T07:42:34.141Z,16.60
2022-12-03T07:45:00.728Z,16.70
2022-12-03T07:47:27.310Z,16.70
2022-12-03T07:49:53.914Z,16.60
2022-12-03T07:52:20.461Z,16.70
2022-12-03T07:54:47.041Z,16.70
2022-12-03T07:57:13.600Z,16.60
2022-12-03T07:59:40.225Z,16.70
2022-12-03T08:02:06.903Z,16.60
2022-12-03T08:04:33.506Z,16.70
2022-12-03T08:07:00.036Z,16.60
2022-12-03T08:09:26.751Z,16.60
2022-12-03T08:11:53.511Z,16.70
2022-12-03T08:14:20.828Z,16.70
2022-12-03T08:16:47.834Z,16.60
2022-12-03T08:19:15.442Z,16.70
2022-12-03T08:21:42.228Z,16.70
2022-12-03T08:24:13.652Z,16.70
2022-12-03T08:26:40.526Z,16.70
2022-12-03T08:29:14.428Z,16.70
2022-12-03T08:31:41.711Z,16.70
2022-12-03T08:34:17.777Z,16.70
2022-12-03T08:36:44.799Z,16.70
2022-12-03T08:39:22.897Z,16.70
2022-12-03T08:42:31.247Z,16.70
2022-12-03T08:45:31.958Z,16.70
2022-12-03T08:48:00.186Z,16.70
2022-12-03T08:50:31.010Z,16.70
2022-12-03T08:53:11.200Z,16.60
2022-12-03T08:55:38.624Z,16.60
2022-12-03T08:58:23.021Z,16.60
2022-12-03T09:01:00.265Z,16.60
2022-12-03T09:03:30.105Z,16.70
2022-12-03T09:05:56.735Z,16.70
2022-12-03T09:08:23.309Z,16.70
2022-12-03T09:10:49.895Z,16.70
2022-12-03T09:13:16.453Z,16.60
2022-12-03T09:15:43.025Z,16.60
2022-12-03T09:18:09.562Z,16.60
2022-12-03T09:20:36.128Z,16.70
2022-12-03T09:23:02.726Z,16.70
2022-12-03T09:25:29.346Z,16.60
2022-12-03T09:27:55.991Z,16.70
2022-12-03T09:30:22.786Z,16.60
2022-12-03T09:32:49.409Z,16.70
2022-12-03T09:35:16.085Z,16.60
2022-12-03T09:37:42.834Z,16.70
2022-12-03T09:40:10.241Z,16.60
2022-12-03T09:42:37.144Z,16.60
2022-12-03T09:45:05.153Z,16.50
2022-12-03T09:47:31.797Z,16.60
2022-12-03T09:49:58.764Z,16.70
2022-12-03T09:52:28.906Z,16.80
2022-12-03T09:54:55.911Z,16.80
2022-12-03T09:57:22.675Z,16.80
2022-12-03T09:59:49.240Z,16.90
2022-12-03T10:02:24.635Z,16.90
2022-12-03T10:04:53.018Z,16.90
2022-12-03T10:07:20.633Z,16.90
2022-12-03T10:09:47.238Z,16.90
2022-12-03T10:12:14.948Z,16.90
2022-12-03T10:14:42.044Z,17.00
2022-12-03T10:17:11.424Z,17.00
2022-12-03T10:19:39.483Z,17.00
2022-12-03T10:22:06.075Z,17.00
2022-12-03T10:24:33.336Z,17.00
2022-12-03T10:27:04.230Z,17.00
2022-12-03T10:29:35.109Z,17.10
2022-12-03T10:32:03.754Z,17.10
2022-12-03T10:34:35.105Z,17.10
2022-12-03T10:37:14.065Z,17.10
2022-12-03T10:40:00.932Z,17.10
2022-12-03T10:42:32.787Z,17.00
2022-12-03T10:45:08.220Z,17.10
2022-12-03T10:47:34.988Z,17.10
2022-12-03T10:50:03.859Z,17.00
2022-12-03T10:52:30.556Z,17.00
2022-12-03T10:54:57.189Z,17.10
2022-12-03T10:57:23.954Z,17.10
2022-12-03T10:59:50.838Z,17.10
2022-12-03T11:02:24.199Z,17.00
2022-12-03T11:04:51.758Z,16.80
2022-12-03T11:07:19.638Z,16.90
2022-12-03T11:09:47.582Z,17.00
2022-12-03T11:12:18.703Z,17.00
2022-12-03T11:14:51.945Z,17.00
2022-12-03T11:17:24.800Z,16.90
2022-12-03T11:19:52.183Z,17.00
2022-12-03T11:22:21.578Z,17.00
2022-12-03T11:25:08.103Z,16.90
2022-12-03T11:27:35.748Z,17.00
2022-12-03T11:30:02.470Z,17.00
2022-12-03T11:32:38.251Z,17.00
2022-12-03T11:35:23.105Z,17.00
2022-12-03T11:37:49.686Z,17.00
2022-12-03T11:40:16.406Z,16.90
2022-12-03T11:42:43.877Z,16.90
2022-12-03T11:45:10.396Z,16.90
2022-12-03T11:47:37.947Z,16.80
2022-12-03T11:50:21.911Z,16.90
2022-12-03T11:52:52.374Z,16.90
2022-12-03T11:55:25.273Z,16.90
2022-12-03T11:57:57.861Z,16.80
2022-12-03T12:00:24.586Z,16.80
2022-12-03T12:02:52.287Z,16.80
2022-12-03T12:05:27.131Z,16.80
2022-12-03T12:07:54.378Z,16.70
2022-12-03T12:10:40.224Z,16.60
2022-12-03T12:13:07.017Z,16.70
2022-12-03T12:15:39.820Z,16.90
2022-12-03T12:18:25.253Z,16.90
2022-12-03T12:20:51.977Z,16.90
2022-12-03T12:23:23.190Z,16.80
2022-12-03T12:25:54.182Z,16.80
2022-12-03T12:28:21.306Z,16.80
2022-12-03T12:30:47.860Z,16.90
2022-12-03T12:33:19.623Z,16.90
2022-12-03T12:35:46.204Z,16.90
2022-12-03T12:38:15.141Z,16.90
2022-12-03T12:40:56.956Z,16.80
2022-12-03T12:43:27.411Z,16.90
2022-12-03T12:45:54.895Z,16.70
2022-12-03T12:48:22.950Z,17.00
2022-12-03T12:50:52.890Z,16.80
2022-12-03T12:53:24.545Z,16.70
2022-12-03T12:55:54.577Z,16.70
2022-12-03T12:58:21.188Z,17.10
2022-12-03T13:00:50.442Z,16.80
2022-12-03T13:03:18.016Z,16.80
2022-12-03T13:05:45.884Z,16.90
2022-12-03T13:08:22.853Z,16.80
2022-12-03T13:10:50.056Z,16.80
2022-12-03T13:13:16.712Z,16.90
2022-12-03T13:15:47.497Z,16.80
2022-12-03T13:18:21.669Z,17.00
2022-12-03T13:20:48.330Z,16.80
2022-12-03T13:23:32.352Z,16.80
2022-12-03T13:26:07.130Z,16.80
2022-12-03T13:28:40.759Z,16.70
2022-12-03T13:31:24.664Z,16.70
2022-12-03T13:33:51.734Z,16.80
2022-12-03T13:36:19.997Z,16.80
2022-12-03T13:38:46.754Z,16.80
2022-12-03T13:41:33.641Z,16.80
2022-12-03T13:44:32.480Z,16.80
2022-12-03T13:47:11.306Z,16.80
2022-12-03T13:49:37.873Z,16.90
2022-12-03T13:52:09.902Z,16.80
2022-12-03T13:54:39.148Z,16.90
2022-12-03T13:57:06.485Z,16.90
2022-12-03T13:59:33.080Z,17.00
2022-12-03T14:01:59.643Z,16.90
2022-12-03T14:04:26.216Z,16.80
2022-12-03T14:06:52.823Z,16.80
2022-12-03T14:09:19.404Z,16.90
2022-12-03T14:12:07.444Z,16.80
2022-12-03T14:14:34.160Z,16.90
2022-12-03T14:17:00.835Z,16.80
2022-12-03T14:19:27.443Z,16.80
2022-12-03T14:21:54.003Z,16.80
2022-12-03T14:24:20.872Z,16.70
2022-12-03T14:26:47.452Z,16.80
2022-12-03T14:29:14.004Z,16.70
2022-12-03T14:31:40.693Z,16.80
2022-12-03T14:34:13.366Z,16.80
2022-12-03T14:37:02.007Z,16.80
2022-12-03T14:39:28.893Z,16.80
2022-12-03T14:45:14.591Z,16.80
2022-12-03T14:47:41.393Z,17.00
2022-12-03T14:50:08.294Z,16.80
2022-12-03T14:52:35.034Z,16.70
2022-12-03T14:55:01.610Z,16.80
2022-12-03T14:57:28.310Z,16.80
2022-12-03T14:59:55.087Z,16.80
2022-12-03T15:02:21.883Z,16.80
2022-12-03T15:04:50.817Z,16.80
2022-12-03T15:07:17.704Z,16.80
2022-12-03T15:09:44.405Z,16.70
2022-12-03T15:12:10.971Z,16.80
2022-12-03T15:14:37.644Z,16.70
2022-12-03T15:17:04.249Z,16.80
2022-12-03T15:19:30.836Z,16.80
2022-12-03T15:21:57.823Z,16.80
2022-12-03T15:24:25.100Z,16.80
2022-12-03T15:26:52.218Z,16.70
2022-12-03T15:29:19.460Z,16.80
2022-12-03T15:31:46.181Z,16.80
2022-12-03T15:34:15.005Z,16.80
2022-12-03T15:36:45.389Z,16.80
2022-12-03T15:39:12.187Z,16.80
2022-12-03T15:41:38.917Z,16.80
2022-12-03T15:44:05.571Z,16.80
2022-12-03T15:46:32.314Z,16.80
2022-12-03T15:48:58.976Z,16.80
2022-12-03T15:51:25.645Z,16.80
2022-12-03T15:53:52.270Z,16.80
2022-12-03T15:56:18.909Z,16.80
2022-12-03T15:58:45.466Z,16.60
2022-12-03T16:01:13.552Z,16.50
2022-12-03T16:03:41.508Z,16.60
2022-12-03T16:06:41.903Z,16.70
2022-12-03T16:09:11.148Z,16.70
2022-12-03T16:11:37.703Z,16.80
2022-12-03T16:14:04.330Z,16.90
2022-12-03T16:16:31.050Z,16.90
2022-12-03T16:18:57.817Z,16.90
2022-12-03T16:21:27.032Z,16.80
2022-12-03T16:27:19.644Z,16.90
2022-12-03T16:29:49.460Z,16.90
2022-12-03T16:32:16.018Z,17.00
2022-12-03T16:34:42.590Z,16.80
2022-12-03T16:37:10.431Z,16.90
2022-12-03T16:39:37.082Z,16.80
2022-12-03T16:42:04.806Z,16.80
2022-12-03T16:44:33.343Z,16.80
2022-12-03T16:47:01.321Z,16.80
2022-12-03T16:49:28.267Z,16.80
2022-12-03T16:51:54.814Z,16.90
2022-12-03T16:54:21.422Z,16.90
2022-12-03T16:56:47.971Z,16.80
2022-12-03T16:59:14.586Z,16.80
2022-12-03T17:01:41.302Z,16.80
2022-12-03T17:04:08.020Z,16.90
2022-12-03T17:06:34.599Z,17.00
2022-12-03T17:09:01.159Z,17.00
2022-12-03T17:11:28.144Z,17.10
2022-12-03T17:13:54.843Z,17.00
2022-12-03T17:16:21.533Z,17.00
2022-12-03T17:18:48.141Z,17.00
2022-12-03T17:21:15.103Z,17.00
2022-12-03T17:23:41.824Z,16.90
2022-12-03T17:26:08.616Z,16.90
2022-12-03T17:28:35.538Z,17.00
2022-12-03T17:31:02.220Z,17.20
2022-12-03T17:33:28.926Z,16.90
2022-12-03T17:35:55.501Z,16.90
2022-12-03T17:38:22.084Z,16.90
2022-12-03T17:40:48.688Z,16.90
2022-12-03T17:43:15.353Z,16.80
2022-12-03T17:45:43.601Z,16.90
2022-12-03T17:48:10.156Z,16.90
2022-12-03T17:50:36.794Z,16.90
2022-12-03T17:53:05.408Z,16.90
2022-12-03T17:55:39.752Z,17.00
2022-12-03T17:58:10.758Z,16.80
2022-12-03T18:00:37.522Z,16.80
2022-12-03T18:03:04.173Z,16.90
2022-12-03T18:05:30.749Z,16.80
2022-12-03T18:07:57.625Z,16.80
2022-12-03T18:10:24.360Z,16.80
2022-12-03T18:12:51.057Z,16.80
2022-12-03T18:15:17.684Z,16.80
2022-12-03T18:17:44.276Z,16.90
2022-12-03T18:20:10.949Z,16.80
2022-12-03T18:22:37.646Z,16.90
2022-12-03T18:25:04.637Z,16.80
2022-12-03T18:27:31.316Z,16.80
2022-12-03T18:29:58.166Z,16.90
2022-12-03T18:32:29.738Z,16.70
2022-12-03T18:34:57.439Z,16.80
2022-12-03T18:37:27.905Z,16.80
2022-12-03T18:39:55.673Z,16.80
2022-12-03T18:42:23.061Z,16.90
2022-12-03T18:44:50.851Z,16.80
2022-12-03T18:47:19.233Z,16.70
2022-12-03T18:49:46.095Z,16.80
2022-12-03T18:52:13.653Z,16.80
2022-12-03T18:54:42.284Z,16.70
2022-12-03T18:57:08.935Z,16.70
2022-12-03T18:59:35.533Z,16.80
2022-12-03T19:02:02.229Z,16.90
2022-12-03T19:04:28.813Z,16.80
2022-12-03T19:06:55.459Z,16.80
2022-12-03T19:09:22.197Z,16.80
2022-12-03T19:11:48.790Z,16.80
2022-12-03T19:14:15.563Z,16.70
2022-12-03T19:16:42.237Z,16.80
2022-12-03T19:19:09.255Z,16.80
2022-12-03T19:21:36.128Z,16.70
2022-12-03T19:24:26.056Z,16.70
2022-12-03T19:26:54.323Z,16.80
2022-12-03T19:29:24.383Z,16.70
2022-12-03T19:31:51.475Z,16.70
2022-12-03T19:34:18.196Z,16.80
2022-12-03T19:36:44.974Z,16.80
2022-12-03T19:39:11.733Z,16.70
2022-12-03T19:41:39.255Z,16.90
2022-12-03T19:44:10.696Z,16.70
2022-12-03T19:46:37.679Z,16.70
2022-12-03T19:49:04.836Z,16.70
2022-12-03T19:51:35.798Z,16.70
2022-12-03T19:54:04.216Z,16.70
2022-12-03T19:56:30.801Z,16.70
2022-12-03T19:58:57.424Z,16.70
2022-12-03T20:01:25.361Z,16.70
2022-12-03T20:03:53.463Z,16.60
2022-12-03T20:06:23.009Z,16.70
2022-12-03T20:08:50.018Z,16.70
2022-12-03T20:11:18.127Z,16.60
2022-12-03T20:13:45.166Z,16.70
2022-12-03T20:16:13.175Z,16.70
2022-12-03T20:18:40.851Z,16.70
2022-12-03T20:21:08.175Z,16.70
2022-12-03T20:23:34.789Z,16.70
2022-12-03T20:26:01.352Z,16.60
2022-12-03T20:28:28.716Z,16.70
2022-12-03T20:31:02.273Z,16.60
2022-12-03T20:33:29.033Z,16.70
2022-12-03T20:35:56.499Z,16.60
2022-12-03T20:38:23.829Z,16.80
2022-12-03T20:40:50.429Z,16.60
2022-12-03T20:43:16.997Z,16.60
2022-12-03T20:45:43.635Z,16.60
2022-12-03T20:48:11.479Z,16.70
2022-12-03T20:50:38.748Z,16.60
2022-12-03T20:53:23.586Z,16.60
2022-12-03T20:55:55.729Z,16.60
2022-12-03T20:58:22.303Z,16.70
2022-12-03T21:00:48.925Z,16.60
2022-12-03T21:03:15.606Z,16.60
2022-12-03T21:05:45.227Z,16.60
2022-12-03T21:08:12.027Z,16.60
2022-12-03T21:10:45.061Z,16.80
2022-12-03T21:13:12.760Z,16.60
2022-12-03T21:15:39.355Z,16.60
2022-12-03T21:18:06.017Z,16.70
2022-12-03T21:20:32.620Z,16.60
2022-12-03T21:22:59.186Z,16.60
2022-12-03T21:25:25.768Z,16.60
2022-12-03T21:27:52.331Z,16.60
2022-12-03T21:30:18.942Z,16.70
2022-12-03T21:32:45.516Z,16.60
2022-12-03T21:35:12.139Z,16.60
2022-12-03T21:37:38.745Z,16.60
2022-12-03T21:40:05.677Z,16.60
2022-12-03T21:42:35.541Z,16.50
2022-12-03T21:45:08.245Z,16.60
2022-12-03T21:47:37.198Z,16.50
2022-12-03T21:50:09.331Z,16.50
2022-12-03T21:52:36.053Z,16.50
2022-12-03T21:55:02.645Z,16.50
2022-12-03T21:57:29.246Z,16.60
2022-12-03T21:59:56.078Z,16.50
2022-12-03T22:02:22.893Z,16.60
2022-12-03T22:04:50.351Z,16.50
2022-12-03T22:07:17.052Z,16.50
2022-12-03T22:09:43.605Z,16.50
2022-12-03T22:12:10.184Z,16.50
2022-12-03T22:14:37.332Z,16.50
2022-12-03T22:17:04.003Z,16.50
2022-12-03T22:19:30.628Z,16.40
2022-12-03T22:21:57.280Z,16.50
2022-12-03T22:24:24.006Z,16.50
2022-12-03T22:26:52.142Z,16.50
2022-12-03T22:29:18.839Z,16.50
2022-12-03T22:31:45.492Z,16.60
2022-12-03T22:34:12.090Z,16.60
2022-12-03T22:36:40.973Z,16.50
2022-12-03T22:39:07.593Z,16.40
2022-12-03T22:41:34.250Z,16.50
2022-12-03T22:44:00.815Z,16.50
2022-12-03T22:46:27.417Z,16.60
2022-12-03T22:48:54.196Z,16.50
2022-12-03T22:51:22.166Z,16.40
2022-12-03T22:53:53.288Z,16.50
2022-12-03T22:56:19.865Z,16.50
2022-12-03T22:58:46.493Z,16.50
2022-12-03T23:01:23.418Z,16.50
2022-12-03T23:03:50.189Z,16.50
2022-12-03T23:06:16.927Z,16.50
2022-12-03T23:08:43.881Z,16.50
2022-12-03T23:11:10.640Z,16.50
2022-12-03T23:13:37.420Z,16.60
2022-12-03T23:16:04.491Z,16.50
2022-12-03T23:18:31.280Z,16.40
2022-12-03T23:20:58.056Z,16.50
2022-12-03T23:23:25.599Z,16.30
2022-12-03T23:26:08.354Z,16.50
2022-12-03T23:28:36.360Z,16.40
2022-12-03T23:31:03.591Z,16.50
2022-12-03T23:33:35.275Z,16.50
2022-12-03T23:36:05.487Z,16.50
2022-12-03T23:38:32.163Z,16.50
2022-12-03T23:41:03.349Z,16.50
2022-12-03T23:43:30.281Z,16.50
2022-12-03T23:46:02.698Z,16.50
2022-12-03T23:48:29.361Z,16.50
2022-12-03T23:50:57.118Z,16.50
2022-12-03T23:53:23.805Z,16.50
2022-12-03T23:55:50.437Z,16.50
2022-12-03T23:58:17.055Z,16.40
